CCA130 RKPK-ZBAD
Flight info
| Callsign | CCA130 |
|---|---|
| Flight time | N/A |
| Altitude | 36000 |
| Route | OPONO3 KALOD A582 SOT W61 GOGET Y697 ANSIM G597 AGAVO/K0854S1100 A591 IKEKA W4 HCH W200 DOVIV W55 DUMAP DUMAP6M |
| Aircraft | A321/M-SDE3FGHIRWY/LB1 |
Departure
| Time | N/A |
|---|---|
| Airport | Gimhae International Airport (RKPK) |
Arrival
| Time | 2026-05-06 23:44 |
|---|---|
| Airport | Beijing Daxing International Airport (ZBAD) |
| Time | Latitude | Longitude | Altitude | Speed | Heading |
|---|---|---|---|---|---|
| 2026-05-06 22:26 | 37.17157 | 124.14812 | 36041 ft | 375 kts | 265° |
| 2026-05-06 22:27 | 37.16940 | 124.08275 | 36039 ft | 375 kts | 265° |
| 2026-05-06 22:27 | 37.16554 | 124.01768 | 36041 ft | 374 kts | 257° |
| 2026-05-06 22:28 | 37.14519 | 123.95808 | 36013 ft | 376 kts | 240° |
| 2026-05-06 22:28 | 37.11663 | 123.90303 | 36039 ft | 377 kts | 240° |
| 2026-05-06 22:29 | 37.08817 | 123.84791 | 36037 ft | 377 kts | 240° |
| 2026-05-06 22:29 | 37.05989 | 123.79310 | 36039 ft | 377 kts | 240° |
| 2026-05-06 22:30 | 37.03140 | 123.73795 | 36041 ft | 377 kts | 240° |
| 2026-05-06 22:30 | 37.00275 | 123.68284 | 36029 ft | 378 kts | 240° |
| 2026-05-06 22:31 | 36.97400 | 123.62763 | 36032 ft | 379 kts | 240° |
| 2026-05-06 22:31 | 36.94523 | 123.57233 | 36039 ft | 380 kts | 240° |
| 2026-05-06 22:32 | 36.91640 | 123.51701 | 36043 ft | 380 kts | 240° |
| 2026-05-06 22:32 | 36.88758 | 123.46169 | 36015 ft | 380 kts | 240° |
| 2026-05-06 22:33 | 36.85891 | 123.40615 | 36022 ft | 380 kts | 244° |
| 2026-05-06 22:33 | 36.84329 | 123.34414 | 36023 ft | 375 kts | 264° |
| 2026-05-06 22:34 | 36.84942 | 123.27906 | 36023 ft | 389 kts | 282° |
| 2026-05-06 22:34 | 36.86524 | 123.21431 | 36049 ft | 390 kts | 282° |
| 2026-05-06 22:35 | 36.88087 | 123.15003 | 36083 ft | 389 kts | 282° |
| 2026-05-06 22:35 | 36.89632 | 123.08592 | 36052 ft | 384 kts | 282° |
| 2026-05-06 22:36 | 36.91163 | 123.02210 | 36056 ft | 383 kts | 282° |
| 2026-05-06 22:36 | 36.92688 | 122.95825 | 36055 ft | 383 kts | 282° |
| 2026-05-06 22:37 | 36.94217 | 122.89437 | 36054 ft | 384 kts | 282° |
| 2026-05-06 22:37 | 36.95739 | 122.83053 | 36065 ft | 383 kts | 282° |
| 2026-05-06 22:38 | 36.97251 | 122.76674 | 36062 ft | 382 kts | 282° |
| 2026-05-06 22:38 | 36.98757 | 122.70293 | 36058 ft | 382 kts | 282° |
| 2026-05-06 22:39 | 37.00266 | 122.63927 | 36056 ft | 382 kts | 282° |
| 2026-05-06 22:39 | 37.01765 | 122.57603 | 36066 ft | 381 kts | 281° |
| 2026-05-06 22:40 | 37.03264 | 122.51232 | 36063 ft | 381 kts | 281° |
| 2026-05-06 22:40 | 37.04750 | 122.44867 | 36060 ft | 381 kts | 281° |
| 2026-05-06 22:41 | 37.07118 | 122.35366 | 36058 ft | 386 kts | 289° |
| 2026-05-06 22:41 | 37.08519 | 122.32464 | 36078 ft | 396 kts | 300° |
| 2026-05-06 22:42 | 37.10444 | 122.29934 | 36069 ft | 408 kts | 311° |
| 2026-05-06 22:42 | 37.15045 | 122.25646 | 36067 ft | 410 kts | 311° |
| 2026-05-06 22:42 | 37.17069 | 122.23221 | 36068 ft | 397 kts | 301° |
| 2026-05-06 22:43 | 37.18640 | 122.20436 | 36067 ft | 387 kts | 292° |
| 2026-05-06 22:43 | 37.20567 | 122.14278 | 36065 ft | 378 kts | 282° |
| 2026-05-06 22:44 | 37.22190 | 122.08006 | 36062 ft | 378 kts | 283° |
| 2026-05-06 22:44 | 37.23816 | 122.01738 | 36091 ft | 377 kts | 283° |
| 2026-05-06 22:45 | 37.25424 | 121.95530 | 36092 ft | 376 kts | 283° |
| 2026-05-06 22:45 | 37.27048 | 121.89257 | 36087 ft | 375 kts | 283° |
| 2026-05-06 22:46 | 37.28639 | 121.83074 | 36090 ft | 374 kts | 283° |
| 2026-05-06 22:46 | 37.30225 | 121.76867 | 36074 ft | 371 kts | 283° |
| 2026-05-06 22:47 | 37.31793 | 121.70732 | 36079 ft | 368 kts | 282° |
| 2026-05-06 22:47 | 37.33356 | 121.64602 | 36072 ft | 368 kts | 283° |
| 2026-05-06 22:48 | 37.34917 | 121.58478 | 36077 ft | 368 kts | 283° |
| 2026-05-06 22:48 | 37.36474 | 121.52344 | 36077 ft | 368 kts | 283° |
| 2026-05-06 22:49 | 37.38027 | 121.46218 | 36097 ft | 368 kts | 283° |
| 2026-05-06 22:49 | 37.39576 | 121.40107 | 36080 ft | 365 kts | 282° |
| 2026-05-06 22:50 | 37.41107 | 121.34020 | 36080 ft | 365 kts | 282° |
| 2026-05-06 22:50 | 37.42634 | 121.27925 | 36083 ft | 365 kts | 282° |
| 2026-05-06 22:51 | 37.44167 | 121.21830 | 36084 ft | 365 kts | 282° |
| 2026-05-06 22:51 | 37.45743 | 121.15763 | 36092 ft | 366 kts | 284° |
| 2026-05-06 22:52 | 37.47613 | 121.09823 | 36088 ft | 368 kts | 287° |
| 2026-05-06 22:52 | 37.49583 | 121.03880 | 36093 ft | 368 kts | 286° |
| 2026-05-06 22:53 | 37.51522 | 120.97923 | 36091 ft | 367 kts | 286° |
| 2026-05-06 22:53 | 37.53419 | 120.91947 | 36118 ft | 367 kts | 285° |
| 2026-05-06 22:54 | 37.55301 | 120.85979 | 36109 ft | 366 kts | 285° |
| 2026-05-06 22:54 | 37.57180 | 120.80016 | 36106 ft | 366 kts | 285° |
| 2026-05-06 22:55 | 37.59061 | 120.74061 | 36117 ft | 366 kts | 286° |
| 2026-05-06 22:55 | 37.60998 | 120.68128 | 36105 ft | 366 kts | 286° |
| 2026-05-06 22:56 | 37.62955 | 120.62212 | 36107 ft | 365 kts | 286° |
| 2026-05-06 22:56 | 37.64907 | 120.56292 | 36112 ft | 365 kts | 286° |
| 2026-05-06 22:57 | 37.67295 | 120.50565 | 36107 ft | 371 kts | 292° |
| 2026-05-06 22:57 | 37.69884 | 120.44926 | 36105 ft | 371 kts | 292° |
| 2026-05-06 22:58 | 37.72459 | 120.39283 | 36144 ft | 371 kts | 292° |
| 2026-05-06 22:58 | 37.75005 | 120.33682 | 36144 ft | 370 kts | 292° |
| 2026-05-06 22:59 | 37.77561 | 120.28045 | 36136 ft | 369 kts | 292° |
| 2026-05-06 22:59 | 37.80112 | 120.22419 | 36130 ft | 369 kts | 292° |
| 2026-05-06 23:00 | 37.82657 | 120.16794 | 36127 ft | 368 kts | 292° |
| 2026-05-06 23:00 | 37.85200 | 120.11172 | 36164 ft | 368 kts | 292° |
| 2026-05-06 23:01 | 37.87734 | 120.05556 | 36159 ft | 367 kts | 292° |
| 2026-05-06 23:01 | 37.89832 | 120.00891 | 36150 ft | 366 kts | 292° |
| 2026-05-06 23:02 | 37.92348 | 119.95285 | 36142 ft | 366 kts | 292° |
| 2026-05-06 23:02 | 37.94864 | 119.89684 | 36138 ft | 366 kts | 292° |
| 2026-05-06 23:03 | 37.97380 | 119.84083 | 36132 ft | 365 kts | 292° |
| 2026-05-06 23:03 | 37.99882 | 119.78495 | 36136 ft | 362 kts | 291° |
| 2026-05-06 23:04 | 38.02753 | 119.72068 | 36127 ft | 360 kts | 291° |
| 2026-05-06 23:04 | 38.04814 | 119.67436 | 36126 ft | 360 kts | 291° |
| 2026-05-06 23:05 | 38.07276 | 119.61894 | 36124 ft | 360 kts | 291° |
| 2026-05-06 23:05 | 38.09736 | 119.56349 | 36122 ft | 360 kts | 291° |
| 2026-05-06 23:06 | 38.11933 | 119.50738 | 36165 ft | 354 kts | 285° |
| 2026-05-06 23:06 | 38.13812 | 119.44964 | 36159 ft | 353 kts | 285° |
| 2026-05-06 23:07 | 38.15689 | 119.39209 | 36155 ft | 352 kts | 285° |
| 2026-05-06 23:07 | 38.17560 | 119.33455 | 36153 ft | 352 kts | 285° |
| 2026-05-06 23:08 | 38.19430 | 119.27707 | 36138 ft | 352 kts | 285° |
| 2026-05-06 23:08 | 38.21297 | 119.21960 | 36162 ft | 352 kts | 285° |
| 2026-05-06 23:09 | 38.23151 | 119.16210 | 36155 ft | 351 kts | 285° |
| 2026-05-06 23:09 | 38.25005 | 119.10458 | 36153 ft | 351 kts | 285° |
| 2026-05-06 23:10 | 38.26853 | 119.04708 | 36154 ft | 351 kts | 285° |
| 2026-05-06 23:10 | 38.28700 | 118.98957 | 36149 ft | 351 kts | 285° |
| 2026-05-06 23:11 | 38.30553 | 118.93200 | 36164 ft | 351 kts | 285° |
| 2026-05-06 23:11 | 38.32399 | 118.87436 | 36163 ft | 352 kts | 285° |
| 2026-05-06 23:12 | 38.34239 | 118.81663 | 36163 ft | 352 kts | 285° |
| 2026-05-06 23:12 | 38.36078 | 118.75886 | 36166 ft | 352 kts | 285° |
| 2026-05-06 23:13 | 38.37924 | 118.70104 | 36165 ft | 352 kts | 285° |
| 2026-05-06 23:13 | 38.39760 | 118.64356 | 36199 ft | 352 kts | 285° |
| 2026-05-06 23:14 | 38.41619 | 118.58530 | 36191 ft | 353 kts | 285° |
| 2026-05-06 23:14 | 38.43454 | 118.52768 | 35973 ft | 353 kts | 285° |
| 2026-05-06 23:14 | 38.44378 | 118.49869 | 35729 ft | 353 kts | 285° |
| 2026-05-06 23:15 | 38.45299 | 118.46973 | 35487 ft | 353 kts | 285° |
| 2026-05-06 23:15 | 38.46219 | 118.44073 | 35244 ft | 352 kts | 285° |
| 2026-05-06 23:15 | 38.47138 | 118.41174 | 35008 ft | 352 kts | 285° |
| 2026-05-06 23:15 | 38.48067 | 118.38235 | 34766 ft | 352 kts | 285° |
| 2026-05-06 23:16 | 38.48969 | 118.35377 | 34577 ft | 351 kts | 285° |
| 2026-05-06 23:16 | 38.49880 | 118.32492 | 34342 ft | 350 kts | 285° |
| 2026-05-06 23:16 | 38.50789 | 118.29611 | 34100 ft | 349 kts | 284° |
| 2026-05-06 23:16 | 38.51696 | 118.26720 | 33211 ft | 354 kts | 284° |
| 2026-05-06 23:17 | 38.52612 | 118.23787 | 32353 ft | 357 kts | 284° |
| 2026-05-06 23:17 | 38.53537 | 118.20819 | 31439 ft | 362 kts | 284° |
| 2026-05-06 23:17 | 38.54474 | 118.17809 | 30560 ft | 367 kts | 284° |
| 2026-05-06 23:17 | 38.55427 | 118.14754 | 29555 ft | 373 kts | 284° |
| 2026-05-06 23:18 | 38.56395 | 118.11655 | 28489 ft | 378 kts | 285° |
| 2026-05-06 23:18 | 38.57377 | 118.08512 | 27463 ft | 383 kts | 285° |
| 2026-05-06 23:18 | 38.58371 | 118.05330 | 26458 ft | 388 kts | 286° |
| 2026-05-06 23:18 | 38.59380 | 118.02123 | 25450 ft | 389 kts | 287° |
| 2026-05-06 23:19 | 38.60435 | 117.98970 | 24477 ft | 384 kts | 289° |
| 2026-05-06 23:19 | 38.61536 | 117.95839 | 23528 ft | 386 kts | 290° |
| 2026-05-06 23:19 | 38.62642 | 117.92763 | 22424 ft | 376 kts | 291° |
| 2026-05-06 23:19 | 38.63726 | 117.89754 | 21618 ft | 371 kts | 291° |
| 2026-05-06 23:20 | 38.64794 | 117.86757 | 20893 ft | 369 kts | 291° |
| 2026-05-06 23:20 | 38.65842 | 117.83773 | 20183 ft | 367 kts | 291° |
| 2026-05-06 23:20 | 38.66878 | 117.80800 | 19494 ft | 365 kts | 291° |
| 2026-05-06 23:20 | 38.67892 | 117.77884 | 18822 ft | 363 kts | 291° |
| 2026-05-06 23:21 | 38.68914 | 117.74939 | 18118 ft | 361 kts | 291° |
| 2026-05-06 23:21 | 38.69943 | 117.71979 | 17424 ft | 358 kts | 291° |
| 2026-05-06 23:21 | 38.70935 | 117.69128 | 16816 ft | 353 kts | 292° |
| 2026-05-06 23:21 | 38.71929 | 117.66268 | 16202 ft | 349 kts | 292° |
| 2026-05-06 23:22 | 38.72909 | 117.63440 | 15618 ft | 346 kts | 292° |
| 2026-05-06 23:22 | 38.73881 | 117.60629 | 15042 ft | 344 kts | 293° |
| 2026-05-06 23:22 | 38.74845 | 117.57840 | 14504 ft | 342 kts | 293° |
| 2026-05-06 23:22 | 38.75803 | 117.55067 | 13970 ft | 339 kts | 294° |
| 2026-05-06 23:23 | 38.76755 | 117.52308 | 13399 ft | 337 kts | 294° |
| 2026-05-06 23:23 | 38.77709 | 117.49562 | 12886 ft | 344 kts | 294° |
| 2026-05-06 23:23 | 38.78701 | 117.46724 | 12339 ft | 348 kts | 294° |
| 2026-05-06 23:23 | 38.79672 | 117.43913 | 11808 ft | 342 kts | 294° |
| 2026-05-06 23:24 | 38.80620 | 117.41146 | 11356 ft | 335 kts | 294° |
| 2026-05-06 23:24 | 38.81531 | 117.38477 | 11238 ft | 318 kts | 294° |
| 2026-05-06 23:24 | 38.82376 | 117.35998 | 11078 ft | 288 kts | 294° |
| 2026-05-06 23:24 | 38.83142 | 117.33749 | 10873 ft | 266 kts | 294° |
| 2026-05-06 23:25 | 38.83869 | 117.31617 | 10572 ft | 258 kts | 294° |
| 2026-05-06 23:25 | 38.84584 | 117.29522 | 10329 ft | 255 kts | 294° |
| 2026-05-06 23:25 | 38.85292 | 117.27453 | 10087 ft | 251 kts | 294° |
| 2026-05-06 23:25 | 38.85986 | 117.25418 | 9951 ft | 249 kts | 295° |
| 2026-05-06 23:26 | 38.86679 | 117.23383 | 9816 ft | 249 kts | 295° |
| 2026-05-06 23:26 | 38.87372 | 117.21349 | 9690 ft | 249 kts | 295° |
| 2026-05-06 23:26 | 38.88066 | 117.19318 | 9556 ft | 249 kts | 295° |
| 2026-05-06 23:26 | 38.88761 | 117.17285 | 9417 ft | 249 kts | 295° |
| 2026-05-06 23:27 | 38.89463 | 117.15241 | 9291 ft | 252 kts | 296° |
| 2026-05-06 23:27 | 38.90171 | 117.13172 | 9159 ft | 255 kts | 297° |
| 2026-05-06 23:27 | 38.90884 | 117.11084 | 9030 ft | 255 kts | 297° |
| 2026-05-06 23:27 | 38.91596 | 117.08991 | 8826 ft | 256 kts | 297° |
| 2026-05-06 23:28 | 38.92306 | 117.06899 | 8525 ft | 255 kts | 297° |
| 2026-05-06 23:28 | 38.93014 | 117.04810 | 8206 ft | 255 kts | 298° |
| 2026-05-06 23:28 | 38.93722 | 117.02717 | 7873 ft | 255 kts | 298° |
| 2026-05-06 23:28 | 38.94427 | 117.00632 | 7622 ft | 253 kts | 298° |
| 2026-05-06 23:29 | 38.95112 | 116.98601 | 7484 ft | 243 kts | 299° |
| 2026-05-06 23:29 | 38.95761 | 116.96670 | 7365 ft | 233 kts | 299° |
| 2026-05-06 23:29 | 38.96399 | 116.94777 | 7314 ft | 230 kts | 299° |
| 2026-05-06 23:29 | 38.97053 | 116.92859 | 7265 ft | 246 kts | 299° |
| 2026-05-06 23:30 | 38.97760 | 116.90800 | 7221 ft | 254 kts | 299° |
| 2026-05-06 23:30 | 38.98466 | 116.88711 | 7166 ft | 256 kts | 299° |
| 2026-05-06 23:30 | 38.99174 | 116.86609 | 7100 ft | 256 kts | 299° |
| 2026-05-06 23:30 | 38.99885 | 116.84496 | 7058 ft | 258 kts | 299° |
| 2026-05-06 23:31 | 39.00596 | 116.82379 | 6987 ft | 256 kts | 299° |
| 2026-05-06 23:31 | 39.01280 | 116.80330 | 6918 ft | 242 kts | 300° |
| 2026-05-06 23:31 | 39.01928 | 116.78384 | 6865 ft | 233 kts | 300° |
| 2026-05-06 23:31 | 39.02567 | 116.76478 | 6820 ft | 232 kts | 300° |
| 2026-05-06 23:32 | 39.03210 | 116.74573 | 6773 ft | 232 kts | 301° |
| 2026-05-06 23:32 | 39.03984 | 116.72787 | 6724 ft | 227 kts | 311° |
| 2026-05-06 23:32 | 39.04962 | 116.71216 | 6677 ft | 224 kts | 316° |
| 2026-05-06 23:32 | 39.05970 | 116.69691 | 6622 ft | 224 kts | 316° |
| 2026-05-06 23:33 | 39.06975 | 116.68158 | 6583 ft | 224 kts | 316° |
| 2026-05-06 23:33 | 39.07977 | 116.66622 | 6536 ft | 224 kts | 316° |
| 2026-05-06 23:33 | 39.08978 | 116.65084 | 6484 ft | 224 kts | 316° |
| 2026-05-06 23:33 | 39.09981 | 116.63545 | 6389 ft | 224 kts | 316° |
| 2026-05-06 23:34 | 39.10979 | 116.62009 | 6275 ft | 224 kts | 314° |
| 2026-05-06 23:34 | 39.11724 | 116.60242 | 6159 ft | 233 kts | 295° |
| 2026-05-06 23:34 | 39.11946 | 116.58110 | 6031 ft | 244 kts | 273° |
| 2026-05-06 23:34 | 39.11744 | 116.55945 | 5876 ft | 247 kts | 270° |
| 2026-05-06 23:35 | 39.11527 | 116.53752 | 5747 ft | 247 kts | 271° |
| 2026-05-06 23:35 | 39.11314 | 116.51558 | 5611 ft | 247 kts | 271° |
| 2026-05-06 23:35 | 39.11108 | 116.49364 | 5477 ft | 246 kts | 273° |
| 2026-05-06 23:35 | 39.11354 | 116.47333 | 5364 ft | 219 kts | 306° |
| 2026-05-06 23:36 | 39.12344 | 116.45993 | 5237 ft | 201 kts | 339° |
| 2026-05-06 23:36 | 39.13663 | 116.45611 | 5131 ft | 192 kts | 356° |
| 2026-05-06 23:36 | 39.14976 | 116.45397 | 5027 ft | 190 kts | 356° |
| 2026-05-06 23:36 | 39.16283 | 116.45188 | 4920 ft | 189 kts | 357° |
| 2026-05-06 23:37 | 39.17583 | 116.44983 | 4815 ft | 188 kts | 357° |
| 2026-05-06 23:37 | 39.18880 | 116.44780 | 4712 ft | 188 kts | 357° |
| 2026-05-06 23:37 | 39.20174 | 116.44578 | 4612 ft | 187 kts | 357° |
| 2026-05-06 23:37 | 39.21464 | 116.44376 | 4512 ft | 187 kts | 357° |
| 2026-05-06 23:38 | 39.22755 | 116.44174 | 4411 ft | 187 kts | 357° |
| 2026-05-06 23:38 | 39.24046 | 116.43972 | 4312 ft | 187 kts | 357° |
| 2026-05-06 23:38 | 39.25336 | 116.43770 | 4211 ft | 187 kts | 356° |
| 2026-05-06 23:38 | 39.26626 | 116.43568 | 4107 ft | 187 kts | 356° |
| 2026-05-06 23:39 | 39.27912 | 116.43367 | 4034 ft | 186 kts | 356° |
| 2026-05-06 23:39 | 39.29195 | 116.43166 | 3877 ft | 185 kts | 355° |
| 2026-05-06 23:39 | 39.30424 | 116.42972 | 3669 ft | 170 kts | 355° |
| 2026-05-06 23:39 | 39.31536 | 116.42796 | 3447 ft | 157 kts | 355° |
| 2026-05-06 23:40 | 39.32583 | 116.42632 | 3242 ft | 146 kts | 355° |
| 2026-05-06 23:40 | 39.33581 | 116.42476 | 3043 ft | 143 kts | 355° |
| 2026-05-06 23:40 | 39.34558 | 116.42324 | 2877 ft | 140 kts | 354° |
| 2026-05-06 23:40 | 39.35520 | 116.42173 | 2667 ft | 139 kts | 354° |
| 2026-05-06 23:41 | 39.36479 | 116.42022 | 2469 ft | 139 kts | 354° |
| 2026-05-06 23:41 | 39.37441 | 116.41871 | 2298 ft | 142 kts | 354° |
| 2026-05-06 23:41 | 39.38431 | 116.41715 | 2090 ft | 144 kts | 353° |
| 2026-05-06 23:41 | 39.39433 | 116.41558 | 1890 ft | 145 kts | 353° |
| 2026-05-06 23:42 | 39.40444 | 116.41399 | 1683 ft | 147 kts | 353° |
| 2026-05-06 23:42 | 39.41440 | 116.41242 | 1479 ft | 138 kts | 352° |
| 2026-05-06 23:42 | 39.42379 | 116.41095 | 1295 ft | 135 kts | 353° |
| 2026-05-06 23:42 | 39.43321 | 116.40946 | 1108 ft | 137 kts | 354° |
| 2026-05-06 23:43 | 39.44251 | 116.40800 | 928 ft | 134 kts | 353° |
| 2026-05-06 23:43 | 39.45186 | 116.40652 | 748 ft | 135 kts | 353° |
| 2026-05-06 23:43 | 39.46117 | 116.40497 | 585 ft | 133 kts | 353° |
| 2026-05-06 23:43 | 39.47028 | 116.40350 | 399 ft | 134 kts | 352° |
| 2026-05-06 23:44 | 39.47944 | 116.40208 | 243 ft | 133 kts | 354° |
| 2026-05-06 23:44 | 39.48865 | 116.40086 | 107 ft | 127 kts | 352° |
| 2026-05-06 23:44 | 39.49599 | 116.39960 | 95 ft | 78 kts | 353° |
| 2026-05-06 23:44 | 39.49966 | 116.39906 | 99 ft | 34 kts | 357° |
| 2026-05-06 23:45 | 39.50174 | 116.39964 | 98 ft | 27 kts | 20° |
| 2026-05-06 23:45 | 39.50319 | 116.40034 | 93 ft | 22 kts | 19° |
| 2026-05-06 23:45 | 39.50470 | 116.40049 | 89 ft | 23 kts | 353° |
| 2026-05-06 23:45 | 39.50615 | 116.40050 | 89 ft | 18 kts | 36° |
| 2026-05-06 23:46 | 39.50578 | 116.40144 | 88 ft | 15 kts | 170° |
| 2026-05-06 23:46 | 39.50462 | 116.40164 | 88 ft | 17 kts | 173° |
| 2026-05-06 23:46 | 39.50344 | 116.40182 | 88 ft | 21 kts | 173° |
| 2026-05-06 23:46 | 39.50174 | 116.40209 | 89 ft | 23 kts | 172° |
| 2026-05-06 23:47 | 39.50117 | 116.40333 | 88 ft | 17 kts | 83° |
| 2026-05-06 23:47 | 39.50131 | 116.40486 | 88 ft | 17 kts | 83° |
| 2026-05-06 23:47 | 39.50147 | 116.40648 | 88 ft | 22 kts | 83° |
| 2026-05-06 23:47 | 39.50170 | 116.40887 | 85 ft | 28 kts | 83° |
| 2026-05-06 23:48 | 39.50194 | 116.41138 | 86 ft | 28 kts | 84° |
| 2026-05-06 23:48 | 39.50217 | 116.41388 | 89 ft | 28 kts | 83° |
| 2026-05-06 23:48 | 39.50242 | 116.41637 | 85 ft | 28 kts | 82° |
| 2026-05-06 23:48 | 39.50267 | 116.41887 | 85 ft | 28 kts | 83° |
| 2026-05-06 23:49 | 39.50289 | 116.42124 | 89 ft | 23 kts | 81° |
| 2026-05-06 23:49 | 39.50379 | 116.42177 | 86 ft | 18 kts | 354° |
| 2026-05-06 23:49 | 39.50534 | 116.42154 | 87 ft | 24 kts | 353° |
| 2026-05-06 23:49 | 39.50702 | 116.42128 | 89 ft | 25 kts | 353° |
| 2026-05-06 23:50 | 39.50877 | 116.42099 | 86 ft | 26 kts | 353° |
| 2026-05-06 23:50 | 39.51092 | 116.41967 | 89 ft | 14 kts | 264° |
| 2026-05-06 23:50 | 39.51083 | 116.41846 | 85 ft | 13 kts | 263° |
| 2026-05-06 23:51 | 39.51071 | 116.41727 | 86 ft | 13 kts | 263° |
| 2026-05-06 23:51 | 39.51082 | 116.41619 | 89 ft | 12 kts | 310° |
| 2026-05-06 23:51 | 39.51150 | 116.41566 | 87 ft | 11 kts | 331° |
| 2026-05-06 23:51 | 39.51160 | 116.41559 | 87 ft | 0 kts | 331° |
| 2026-05-06 23:52 | 39.51161 | 116.41558 | 86 ft | 0 kts | 331° |
| 2026-05-06 23:52 | 39.51162 | 116.41558 | 86 ft | 0 kts | 331° |
| 2026-05-06 23:54 | 39.51161 | 116.41558 | 85 ft | 0 kts | 331° |